Time;durP1;ratioP1;P1;durP2;ratioP2;P2;SDS_P1;SDS_P2;PMS_P1;PMS_P2;Temp;Humidity;BMP_temperature;BMP_pressure;BME280_temperature;BME280_humidity;BME280_pressure;Samples;Min_cycle;Max_cycle;Signal;HPM_P1;HPM_P2
2021/07/20 00:01:14;;;;;;;11.02;7.70;;;;;;;;;;5010121;28;20227;-75
2021/07/20 00:03:42;;;;;;;11.68;8.30;;;;;;;;;;5001216;28;20284;-76
2021/07/20 00:06:09;;;;;;;11.63;8.35;;;;;;;;;;5011386;28;20197;-76
2021/07/20 00:08:36;;;;;;;9.93;7.35;;;;;;;;;;5003766;28;20331;-76
2021/07/20 00:11:04;;;;;;;12.73;8.52;;;;;;;;;;5013771;28;20312;-76
2021/07/20 00:13:32;;;;;;;9.95;7.95;;;;;;;;;;5013151;28;20292;-76
2021/07/20 00:16:01;;;;;;;9.35;8.07;;;;;;;;;;5014202;28;20292;-76
2021/07/20 00:18:30;;;;;;;10.77;8.20;;;;;;;;;;5010039;28;20608;-76
2021/07/20 00:20:57;;;;;;;10.05;8.18;;;;;;;;;;5011464;28;20284;-76
2021/07/20 00:23:25;;;;;;;10.60;8.13;;;;;;;;;;5014876;28;20732;-76
2021/07/20 00:25:52;;;;;;;10.63;8.45;;;;;;;;;;5004761;28;20288;-76
2021/07/20 00:28:20;;;;;;;11.65;8.05;;;;;;;;;;5002538;28;20229;-76
2021/07/20 00:30:48;;;;;;;12.45;8.70;;;;;;;;;;5009194;28;20308;-76
2021/07/20 00:33:17;;;;;;;9.27;7.70;;;;;;;;;;5013817;28;20241;-76
2021/07/20 00:35:44;;;;;;;11.68;8.25;;;;;;;;;;5014328;28;20323;-76
2021/07/20 00:38:12;;;;;;;11.05;8.18;;;;;;;;;;4997999;28;20687;-76
2021/07/20 00:40:40;;;;;;;10.75;7.93;;;;;;;;;;5008041;28;20204;-76
2021/07/20 00:43:07;;;;;;;9.82;7.97;;;;;;;;;;5013948;28;20237;-76
2021/07/20 00:45:35;;;;;;;12.05;7.78;;;;;;;;;;5011169;28;20240;-76
2021/07/20 00:48:03;;;;;;;10.98;8.23;;;;;;;;;;5005516;28;20233;-76
2021/07/20 00:50:34;;;;;;;13.85;8.60;;;;;;;;;;5013492;28;20743;-76
2021/07/20 00:53:02;;;;;;;9.68;8.15;;;;;;;;;;5013142;28;20288;-76
2021/07/20 00:55:30;;;;;;;12.10;8.38;;;;;;;;;;5014168;28;20864;-76
2021/07/20 00:57:57;;;;;;;12.88;8.25;;;;;;;;;;5014358;28;20233;-76
2021/07/20 01:00:24;;;;;;;11.05;8.70;;;;;;;;;;5013504;28;20280;-76
2021/07/20 01:02:51;;;;;;;11.80;8.38;;;;;;;;;;5014022;28;20280;-76
2021/07/20 01:05:20;;;;;;;12.18;8.45;;;;;;;;;;4994378;28;20300;-76
2021/07/20 01:07:49;;;;;;;9.25;8.18;;;;;;;;;;5013082;28;20307;-76
2021/07/20 01:10:17;;;;;;;10.75;8.98;;;;;;;;;;5013617;28;20311;-76
2021/07/20 01:12:44;;;;;;;10.68;8.63;;;;;;;;;;5014604;28;20259;-76
2021/07/20 01:15:13;;;;;;;14.05;8.40;;;;;;;;;;5013291;28;20720;-76
2021/07/20 01:17:40;;;;;;;9.63;8.65;;;;;;;;;;4998344;28;20205;-76
2021/07/20 01:20:09;;;;;;;12.25;8.50;;;;;;;;;;5013117;28;20675;-75
2021/07/20 01:22:38;;;;;;;10.98;8.43;;;;;;;;;;5011126;28;20271;-76
2021/07/20 01:25:09;;;;;;;9.02;8.10;;;;;;;;;;5012798;28;20228;-76
2021/07/20 01:27:38;;;;;;;13.20;8.57;;;;;;;;;;5012437;28;20441;-76
2021/07/20 01:30:06;;;;;;;11.50;8.43;;;;;;;;;;4994298;28;20288;-75
2021/07/20 01:32:33;;;;;;;9.57;8.03;;;;;;;;;;5010885;28;20281;-76
2021/07/20 01:35:01;;;;;;;12.82;8.70;;;;;;;;;;5013748;28;20603;-76
2021/07/20 01:37:29;;;;;;;11.43;8.67;;;;;;;;;;4997346;28;20243;-76
2021/07/20 01:39:58;;;;;;;11.27;8.40;;;;;;;;;;5013546;28;20207;-76
2021/07/20 01:42:26;;;;;;;10.90;8.47;;;;;;;;;;5013090;28;20635;-76
2021/07/20 01:44:54;;;;;;;11.10;8.23;;;;;;;;;;5009455;28;20285;-76
2021/07/20 01:47:22;;;;;;;10.57;8.43;;;;;;;;;;5009552;28;20229;-76
2021/07/20 01:49:50;;;;;;;11.27;8.33;;;;;;;;;;5012217;28;20275;-76
2021/07/20 01:52:17;;;;;;;11.63;8.13;;;;;;;;;;5001457;28;20229;-76
2021/07/20 01:54:45;;;;;;;10.37;8.67;;;;;;;;;;5011404;28;20287;-76
2021/07/20 01:57:13;;;;;;;11.90;8.57;;;;;;;;;;5010017;28;20233;-76
2021/07/20 01:59:42;;;;;;;10.53;8.63;;;;;;;;;;5010661;28;20241;-76
2021/07/20 02:02:24;;;;;;;14.33;9.07;;;;;;;;;;5002832;28;20239;-76
2021/07/20 02:10:15;;;;;;;13.70;8.87;;;;;;;;;;4943848;29;20266;-76
2021/07/20 02:12:43;;;;;;;12.70;9.10;;;;;;;;;;4947057;29;20627;-76
2021/07/20 02:15:13;;;;;;;12.90;9.23;;;;;;;;;;4952101;29;20290;-76
2021/07/20 02:17:41;;;;;;;11.97;8.90;;;;;;;;;;4950703;29;20687;-76
2021/07/20 02:20:12;;;;;;;11.17;9.33;;;;;;;;;;4950859;29;20309;-76
2021/07/20 02:22:40;;;;;;;10.43;9.00;;;;;;;;;;4951257;29;20309;-76
2021/07/20 02:25:08;;;;;;;11.80;9.40;;;;;;;;;;4950804;29;20286;-76
2021/07/20 02:27:35;;;;;;;11.43;10.10;;;;;;;;;;4951444;28;20286;-76
2021/07/20 02:30:05;;;;;;;11.13;9.27;;;;;;;;;;4951605;29;20470;-76
2021/07/20 02:32:34;;;;;;;13.50;9.27;;;;;;;;;;4942081;29;20239;-76
2021/07/20 02:35:02;;;;;;;11.97;9.57;;;;;;;;;;4951424;29;20787;-76
2021/07/20 02:37:30;;;;;;;12.77;9.67;;;;;;;;;;4947172;29;20691;-76
2021/07/20 02:39:58;;;;;;;13.10;9.40;;;;;;;;;;4927840;29;20291;-76
2021/07/20 02:42:26;;;;;;;10.40;8.80;;;;;;;;;;4947480;29;20234;-76
2021/07/20 02:44:54;;;;;;;15.17;9.57;;;;;;;;;;4948775;29;20295;-76
2021/07/20 02:47:22;;;;;;;11.67;9.20;;;;;;;;;;4966851;28;20197;-76
2021/07/20 02:49:52;;;;;;;11.33;9.07;;;;;;;;;;5006350;28;20202;-75
2021/07/20 02:52:19;;;;;;;13.57;9.63;;;;;;;;;;4999380;28;20303;-76
2021/07/20 02:54:47;;;;;;;10.50;9.40;;;;;;;;;;5006675;28;20616;-76
2021/07/20 02:57:16;;;;;;;12.13;9.63;;;;;;;;;;5009330;28;20284;-76
2021/07/20 02:59:45;;;;;;;14.83;9.43;;;;;;;;;;5012474;28;20292;-76
2021/07/20 03:02:13;;;;;;;10.67;9.57;;;;;;;;;;5002937;28;20721;-76
2021/07/20 03:04:40;;;;;;;11.20;9.97;;;;;;;;;;5002305;28;20236;-76
2021/07/20 03:07:12;;;;;;;11.23;9.93;;;;;;;;;;4999960;28;20568;-76
2021/07/20 03:09:40;;;;;;;13.67;9.50;;;;;;;;;;5005469;28;20315;-76
2021/07/20 03:12:11;;;;;;;11.63;9.90;;;;;;;;;;5011248;28;20248;-75
2021/07/20 03:14:39;;;;;;;14.17;10.13;;;;;;;;;;5007666;28;20208;-76
2021/07/20 03:17:08;;;;;;;15.70;10.37;;;;;;;;;;5011476;28;20291;-76
2021/07/20 03:19:36;;;;;;;12.43;10.07;;;;;;;;;;5010290;28;20204;-76
2021/07/20 03:22:05;;;;;;;12.67;9.70;;;;;;;;;;5010221;28;20304;-76
2021/07/20 03:24:34;;;;;;;12.77;10.33;;;;;;;;;;5006925;28;20229;-75
2021/07/20 03:27:02;;;;;;;10.87;9.17;;;;;;;;;;5004916;28;20203;-76
2021/07/20 03:29:29;;;;;;;11.80;9.73;;;;;;;;;;5011745;28;20292;-76
2021/07/20 03:31:57;;;;;;;13.80;10.33;;;;;;;;;;5010550;28;20216;-76
2021/07/20 03:34:25;;;;;;;14.43;9.87;;;;;;;;;;5006807;28;20229;-76
2021/07/20 03:36:52;;;;;;;12.27;10.13;;;;;;;;;;5010091;28;20229;-76
2021/07/20 03:39:20;;;;;;;12.27;9.90;;;;;;;;;;5011046;28;20201;-76
2021/07/20 03:41:49;;;;;;;12.07;9.30;;;;;;;;;;5004942;28;20279;-76
2021/07/20 03:44:17;;;;;;;12.10;9.07;;;;;;;;;;5005514;28;20288;-76
2021/07/20 03:46:44;;;;;;;10.30;9.27;;;;;;;;;;5010243;28;20284;-76
2021/07/20 03:49:13;;;;;;;12.73;9.43;;;;;;;;;;5000340;28;20232;-76
2021/07/20 03:51:42;;;;;;;11.50;10.00;;;;;;;;;;5005168;28;20334;-76
2021/07/20 03:54:10;;;;;;;12.87;10.07;;;;;;;;;;5003219;28;20288;-76
2021/07/20 03:56:38;;;;;;;12.57;10.00;;;;;;;;;;4994625;28;20677;-76
2021/07/20 03:59:08;;;;;;;12.07;10.33;;;;;;;;;;4999241;28;20215;-76
2021/07/20 04:01:37;;;;;;;14.30;9.60;;;;;;;;;;5007926;28;20201;-76
2021/07/20 04:04:05;;;;;;;14.93;11.10;;;;;;;;;;4996053;28;20665;-76
2021/07/20 04:06:34;;;;;;;13.37;10.57;;;;;;;;;;5005490;28;20276;-75
2021/07/20 04:09:01;;;;;;;13.57;10.97;;;;;;;;;;5001885;28;20324;-76
2021/07/20 04:11:28;;;;;;;13.23;10.23;;;;;;;;;;5009455;28;20347;-76
2021/07/20 04:13:56;;;;;;;12.23;10.50;;;;;;;;;;5009868;28;20288;-76
2021/07/20 04:16:26;;;;;;;15.70;10.40;;;;;;;;;;5007254;28;20288;-75
2021/07/20 04:18:53;;;;;;;13.00;10.23;;;;;;;;;;5009227;28;20288;-75
2021/07/20 04:21:21;;;;;;;12.80;10.07;;;;;;;;;;5002925;28;20247;-75
2021/07/20 04:23:50;;;;;;;11.93;9.90;;;;;;;;;;5008443;28;20280;-76
2021/07/20 04:26:17;;;;;;;12.40;9.93;;;;;;;;;;5008928;28;20289;-76
2021/07/20 04:28:45;;;;;;;13.27;10.80;;;;;;;;;;4998148;28;20234;-75
2021/07/20 04:31:13;;;;;;;13.47;10.27;;;;;;;;;;5004542;28;20267;-75
2021/07/20 04:33:46;;;;;;;11.13;9.90;;;;;;;;;;5002430;28;20289;-75
2021/07/20 04:36:14;;;;;;;13.00;10.53;;;;;;;;;;5004771;28;20198;-75
2021/07/20 04:38:41;;;;;;;13.20;10.03;;;;;;;;;;5011733;28;20351;-75
2021/07/20 04:41:08;;;;;;;12.00;10.53;;;;;;;;;;5011129;28;20292;-75
2021/07/20 04:43:37;;;;;;;16.30;10.27;;;;;;;;;;5007197;28;20300;-75
2021/07/20 04:46:07;;;;;;;13.63;10.60;;;;;;;;;;4991557;28;20289;-75
2021/07/20 04:48:35;;;;;;;14.70;10.00;;;;;;;;;;4991338;28;20288;-75
2021/07/20 04:51:04;;;;;;;13.67;9.70;;;;;;;;;;4992338;28;20244;-75
2021/07/20 04:53:31;;;;;;;13.80;10.13;;;;;;;;;;5008765;28;20640;-75
2021/07/20 04:55:58;;;;;;;14.40;10.90;;;;;;;;;;5011466;28;20633;-75
2021/07/20 04:58:25;;;;;;;14.47;11.67;;;;;;;;;;4998125;28;20236;-75
2021/07/20 05:00:53;;;;;;;12.50;10.47;;;;;;;;;;5010490;28;20235;-76
2021/07/20 05:03:22;;;;;;;13.70;11.03;;;;;;;;;;5008766;28;20277;-75
2021/07/20 05:05:49;;;;;;;12.37;10.97;;;;;;;;;;5011890;28;20288;-75
2021/07/20 05:08:19;;;;;;;14.13;11.00;;;;;;;;;;5009998;28;20272;-76
2021/07/20 05:10:49;;;;;;;13.23;11.13;;;;;;;;;;5002151;28;20197;-75
2021/07/20 05:13:17;;;;;;;16.00;11.50;;;;;;;;;;5014542;28;20233;-76
2021/07/20 05:15:46;;;;;;;11.83;10.47;;;;;;;;;;4997981;28;20221;-76
2021/07/20 05:18:14;;;;;;;12.00;10.53;;;;;;;;;;5007744;28;20669;-76
2021/07/20 05:20:42;;;;;;;12.00;10.77;;;;;;;;;;5010581;28;20224;-74
2021/07/20 05:23:09;;;;;;;12.23;9.90;;;;;;;;;;5014370;28;20608;-74
2021/07/20 05:25:38;;;;;;;12.43;10.70;;;;;;;;;;5009888;28;20738;-76
2021/07/20 05:28:06;;;;;;;14.33;9.80;;;;;;;;;;5013302;28;20232;-75
2021/07/20 05:30:33;;;;;;;15.20;11.37;;;;;;;;;;5008127;28;20289;-74
2021/07/20 05:33:01;;;;;;;11.73;9.73;;;;;;;;;;4994384;28;20305;-74
2021/07/20 05:35:28;;;;;;;11.97;9.93;;;;;;;;;;4997605;28;20236;-74
2021/07/20 05:37:55;;;;;;;11.13;9.30;;;;;;;;;;5012656;28;20232;-74
2021/07/20 05:40:22;;;;;;;10.50;9.38;;;;;;;;;;5013239;28;20288;-75
2021/07/20 05:42:52;;;;;;;14.57;9.20;;;;;;;;;;5010791;28;20673;-74
2021/07/20 05:45:20;;;;;;;11.82;9.27;;;;;;;;;;5013373;28;20243;-74
2021/07/20 05:47:48;;;;;;;16.45;9.52;;;;;;;;;;4995855;28;20229;-74
2021/07/20 05:50:16;;;;;;;12.43;9.15;;;;;;;;;;5004498;28;20229;-75
2021/07/20 05:52:44;;;;;;;10.13;9.02;;;;;;;;;;5007949;28;20225;-74
2021/07/20 05:55:12;;;;;;;9.52;8.50;;;;;;;;;;5011769;28;20713;-74
2021/07/20 05:57:40;;;;;;;9.75;8.75;;;;;;;;;;5011014;28;20280;-74
2021/07/20 06:00:10;;;;;;;10.13;8.68;;;;;;;;;;5008679;28;20224;-73
2021/07/20 06:02:38;;;;;;;9.95;7.95;;;;;;;;;;5011112;28;20285;-73
2021/07/20 06:05:07;;;;;;;8.73;7.72;;;;;;;;;;5004313;28;20229;-73
2021/07/20 06:07:36;;;;;;;11.77;8.68;;;;;;;;;;5010210;28;20229;-73
2021/07/20 06:10:04;;;;;;;9.85;7.57;;;;;;;;;;5003353;28;20265;-74
2021/07/20 06:12:32;;;;;;;10.77;8.75;;;;;;;;;;5007311;28;20780;-73
2021/07/20 06:15:00;;;;;;;8.30;7.43;;;;;;;;;;5011261;28;20285;-73
2021/07/20 06:17:29;;;;;;;9.23;7.88;;;;;;;;;;4995197;28;20202;-74
2021/07/20 06:19:56;;;;;;;12.05;7.72;;;;;;;;;;5010418;28;20296;-73
2021/07/20 06:22:25;;;;;;;11.25;8.02;;;;;;;;;;5009633;28;20207;-74
2021/07/20 06:24:53;;;;;;;9.40;7.85;;;;;;;;;;5007516;28;20867;-74
2021/07/20 06:27:20;;;;;;;8.55;7.47;;;;;;;;;;5005899;28;20296;-75
2021/07/20 06:29:48;;;;;;;8.45;7.28;;;;;;;;;;5006556;28;20284;-74
2021/07/20 06:32:17;;;;;;;7.88;6.78;;;;;;;;;;5008126;28;20214;-74
2021/07/20 06:34:46;;;;;;;7.53;6.82;;;;;;;;;;5010903;28;20209;-74
2021/07/20 06:37:13;;;;;;;9.40;7.57;;;;;;;;;;5011105;28;20656;-74
2021/07/20 06:39:40;;;;;;;8.63;7.38;;;;;;;;;;4995542;28;20233;-74
2021/07/20 06:42:08;;;;;;;9.02;7.30;;;;;;;;;;5004378;28;20280;-74
2021/07/20 06:44:37;;;;;;;8.75;6.80;;;;;;;;;;5010746;28;20708;-74
2021/07/20 06:47:04;;;;;;;9.00;7.18;;;;;;;;;;5011827;28;20301;-73
2021/07/20 06:49:32;;;;;;;10.60;7.05;;;;;;;;;;5010117;28;20280;-75
2021/07/20 06:52:01;;;;;;;7.13;6.43;;;;;;;;;;5011714;28;20898;-74
2021/07/20 06:54:28;;;;;;;8.38;6.03;;;;;;;;;;5011860;28;20716;-74
2021/07/20 06:56:56;;;;;;;9.18;6.60;;;;;;;;;;5011223;28;20248;-75
2021/07/20 06:59:25;;;;;;;7.22;6.53;;;;;;;;;;5011018;28;20228;-74
2021/07/20 07:01:52;;;;;;;9.23;6.47;;;;;;;;;;5004470;28;20224;-75
2021/07/20 07:04:24;;;;;;;7.88;6.47;;;;;;;;;;5009892;28;20308;-74
2021/07/20 07:06:52;;;;;;;8.25;7.07;;;;;;;;;;5010465;28;20685;-74
2021/07/20 07:09:21;;;;;;;8.10;6.18;;;;;;;;;;5009134;28;20320;-74
2021/07/20 07:11:49;;;;;;;8.00;6.43;;;;;;;;;;5010089;28;20509;-75
2021/07/20 07:14:17;;;;;;;8.30;6.25;;;;;;;;;;5010489;28;20197;-74
2021/07/20 07:16:46;;;;;;;6.30;5.70;;;;;;;;;;5010701;28;20201;-75
2021/07/20 07:19:15;;;;;;;8.60;5.80;;;;;;;;;;5009913;28;20643;-75
2021/07/20 07:21:43;;;;;;;11.73;6.40;;;;;;;;;;5008625;28;20291;-75
2021/07/20 07:24:12;;;;;;;12.02;6.68;;;;;;;;;;5001355;28;20675;-75
2021/07/20 07:26:41;;;;;;;6.75;6.05;;;;;;;;;;5009437;28;20617;-76
2021/07/20 07:29:10;;;;;;;8.98;5.93;;;;;;;;;;5010832;28;20701;-75
2021/07/20 07:31:37;;;;;;;18.35;6.28;;;;;;;;;;5001947;28;20245;-75
2021/07/20 07:34:04;;;;;;;10.98;6.05;;;;;;;;;;4994764;28;20261;-75
2021/07/20 07:36:32;;;;;;;12.30;6.18;;;;;;;;;;5004604;28;20319;-75
2021/07/20 07:39:02;;;;;;;6.88;5.45;;;;;;;;;;4998853;28;20260;-75
2021/07/20 07:41:33;;;;;;;6.40;5.60;;;;;;;;;;5009348;28;20692;-76
2021/07/20 07:44:03;;;;;;;7.90;5.93;;;;;;;;;;5008068;28;20418;-75
2021/07/20 07:46:31;;;;;;;6.72;5.10;;;;;;;;;;4996949;28;20230;-76
2021/07/20 07:48:58;;;;;;;8.18;5.82;;;;;;;;;;5007791;28;20291;-76
2021/07/20 07:51:26;;;;;;;7.25;5.07;;;;;;;;;;5009686;28;20280;-76
2021/07/20 07:53:58;;;;;;;6.07;5.43;;;;;;;;;;5008531;28;20239;-77
2021/07/20 07:56:26;;;;;;;8.45;5.95;;;;;;;;;;5003698;28;20211;-77
2021/07/20 07:58:53;;;;;;;13.93;6.20;;;;;;;;;;5011402;28;20811;-76
2021/07/20 08:01:22;;;;;;;6.65;5.75;;;;;;;;;;5008568;28;20252;-77
2021/07/20 08:03:51;;;;;;;6.43;5.65;;;;;;;;;;5008216;28;20281;-77
2021/07/20 08:06:20;;;;;;;6.93;5.50;;;;;;;;;;5005975;28;20780;-77
2021/07/20 08:08:48;;;;;;;7.75;5.60;;;;;;;;;;4998456;28;20928;-78
2021/07/20 08:11:16;;;;;;;6.80;6.03;;;;;;;;;;4994826;28;20289;-77
2021/07/20 08:13:43;;;;;;;9.70;6.32;;;;;;;;;;4995170;28;20297;-78
2021/07/20 08:16:11;;;;;;;15.73;6.72;;;;;;;;;;4998542;28;20201;-77
2021/07/20 08:18:40;;;;;;;7.90;6.07;;;;;;;;;;5008921;28;20224;-77
2021/07/20 08:21:08;;;;;;;8.73;6.03;;;;;;;;;;4999104;28;20232;-78
2021/07/20 08:23:37;;;;;;;8.70;6.05;;;;;;;;;;5010581;28;20212;-77
2021/07/20 08:26:06;;;;;;;9.57;5.82;;;;;;;;;;4995308;28;20293;-77
2021/07/20 08:28:35;;;;;;;12.98;6.30;;;;;;;;;;5011529;28;20288;-78
2021/07/20 08:31:04;;;;;;;7.38;5.72;;;;;;;;;;5009770;28;20283;-77
2021/07/20 08:33:33;;;;;;;17.05;7.03;;;;;;;;;;4998351;28;20308;-77
2021/07/20 08:36:03;;;;;;;11.50;6.18;;;;;;;;;;5001487;28;20563;-77
2021/07/20 08:38:31;;;;;;;6.85;5.95;;;;;;;;;;5012337;28;20225;-77
2021/07/20 08:41:09;;;;;;;7.90;6.38;;;;;;;;;;5009119;28;20206;-77
2021/07/20 08:43:43;;;;;;;7.80;5.88;;;;;;;;;;5000155;28;20592;-77
2021/07/20 08:46:17;;;;;;;8.05;5.85;;;;;;;;;;5009389;28;20225;-77
2021/07/20 08:48:48;;;;;;;6.63;5.93;;;;;;;;;;5009803;28;20630;-77
2021/07/20 08:51:20;;;;;;;9.70;6.30;;;;;;;;;;5014470;28;20308;-77
2021/07/20 08:53:51;;;;;;;9.30;5.60;;;;;;;;;;5007777;28;20306;-78
2021/07/20 08:56:18;;;;;;;6.35;5.75;;;;;;;;;;5009697;28;20288;-77
2021/07/20 08:58:48;;;;;;;7.43;6.30;;;;;;;;;;5009428;28;20280;-77
2021/07/20 09:01:16;;;;;;;6.63;6.03;;;;;;;;;;4999778;28;20586;-77
2021/07/20 09:03:48;;;;;;;7.50;6.50;;;;;;;;;;4999195;28;20236;-77
2021/07/20 09:06:20;;;;;;;7.28;6.22;;;;;;;;;;5009965;28;20288;-77
2021/07/20 09:08:52;;;;;;;6.80;6.10;;;;;;;;;;5013358;28;20370;-77
2021/07/20 09:11:23;;;;;;;9.35;6.43;;;;;;;;;;5013779;28;20228;-77
2021/07/20 09:13:54;;;;;;;7.63;6.13;;;;;;;;;;5010864;28;20303;-77
2021/07/20 09:16:25;;;;;;;6.72;6.10;;;;;;;;;;5013595;28;20291;-77
2021/07/20 09:18:56;;;;;;;7.68;6.00;;;;;;;;;;5008096;28;20653;-77
2021/07/20 09:21:28;;;;;;;9.18;6.28;;;;;;;;;;5008934;28;20297;-77
2021/07/20 09:23:58;;;;;;;8.07;5.85;;;;;;;;;;5010486;28;20189;-78
2021/07/20 09:26:26;;;;;;;11.50;6.60;;;;;;;;;;5012963;28;20197;-78
2021/07/20 09:28:55;;;;;;;7.90;6.50;;;;;;;;;;5009637;28;20656;-76
2021/07/20 09:31:37;;;;;;;9.43;5.88;;;;;;;;;;5011490;28;20296;-77
2021/07/20 09:34:13;;;;;;;6.43;5.70;;;;;;;;;;5011311;28;20227;-77
2021/07/20 09:36:46;;;;;;;7.60;6.50;;;;;;;;;;5012634;28;20699;-77
2021/07/20 09:39:32;;;;;;;8.15;6.28;;;;;;;;;;4997914;28;20288;-78
2021/07/20 09:42:02;;;;;;;6.63;5.75;;;;;;;;;;4999821;28;20288;-78
2021/07/20 09:44:37;;;;;;;8.95;6.00;;;;;;;;;;5011897;28;20190;-78
2021/07/20 09:47:07;;;;;;;7.07;6.38;;;;;;;;;;5006907;28;20667;-77
2021/07/20 09:49:41;;;;;;;7.28;5.88;;;;;;;;;;5005797;28;20351;-77
2021/07/20 09:52:22;;;;;;;12.02;6.13;;;;;;;;;;4998138;28;20284;-77
2021/07/20 09:55:04;;;;;;;8.77;5.82;;;;;;;;;;4999363;28;20747;-78
2021/07/20 09:57:38;;;;;;;7.28;5.90;;;;;;;;;;5010642;28;20275;-77
2021/07/20 10:00:10;;;;;;;9.60;5.68;;;;;;;;;;5007825;28;20239;-77
2021/07/20 10:02:43;;;;;;;6.32;5.78;;;;;;;;;;5011742;28;20196;-77
2021/07/20 10:05:14;;;;;;;8.32;5.88;;;;;;;;;;5002044;28;20242;-77
2021/07/20 10:07:44;;;;;;;6.72;5.85;;;;;;;;;;4995611;28;20202;-77
2021/07/20 10:10:14;;;;;;;6.35;5.75;;;;;;;;;;5005987;28;20284;-77
2021/07/20 10:12:46;;;;;;;6.43;5.75;;;;;;;;;;4999626;28;21669;-77
2021/07/20 10:15:17;;;;;;;6.53;5.70;;;;;;;;;;5012394;28;20232;-77
2021/07/20 10:17:46;;;;;;;6.40;5.80;;;;;;;;;;5010550;28;20276;-76
2021/07/20 10:20:15;;;;;;;7.03;5.45;;;;;;;;;;5000176;28;20194;-75
2021/07/20 10:22:46;;;;;;;5.75;5.18;;;;;;;;;;5003476;28;20316;-78
2021/07/20 10:25:16;;;;;;;6.13;5.57;;;;;;;;;;5009673;28;20634;-76
2021/07/20 10:27:46;;;;;;;6.43;5.32;;;;;;;;;;5004338;28;20287;-77
2021/07/20 10:30:15;;;;;;;7.07;5.80;;;;;;;;;;5010819;28;20295;-77
2021/07/20 10:32:53;;;;;;;6.45;5.50;;;;;;;;;;5004600;28;20237;-77
2021/07/20 10:35:23;;;;;;;7.90;5.88;;;;;;;;;;5002887;28;20747;-76
2021/07/20 10:37:53;;;;;;;6.57;5.97;;;;;;;;;;5005836;28;20205;-77
2021/07/20 10:40:21;;;;;;;7.60;5.45;;;;;;;;;;4999050;28;20331;-77
2021/07/20 10:42:53;;;;;;;8.20;5.70;;;;;;;;;;5011527;28;20586;-76
2021/07/20 10:45:21;;;;;;;6.32;5.35;;;;;;;;;;5006912;28;20225;-76
2021/07/20 10:47:50;;;;;;;5.95;5.45;;;;;;;;;;5002251;28;20288;-77
2021/07/20 10:50:21;;;;;;;6.25;5.40;;;;;;;;;;5009171;28;20288;-77
2021/07/20 10:53:02;;;;;;;5.95;5.43;;;;;;;;;;5009453;28;20307;-77
2021/07/20 10:55:32;;;;;;;7.28;5.50;;;;;;;;;;5010011;28;20308;-77
2021/07/20 10:58:01;;;;;;;7.35;5.57;;;;;;;;;;5009811;28;20205;-76
2021/07/20 11:00:31;;;;;;;6.60;5.90;;;;;;;;;;5009162;28;20232;-77
2021/07/20 11:03:01;;;;;;;7.07;5.28;;;;;;;;;;5009058;28;20196;-77
2021/07/20 11:05:30;;;;;;;7.72;5.60;;;;;;;;;;5007770;28;20781;-77
2021/07/20 11:08:00;;;;;;;6.45;5.55;;;;;;;;;;4992729;28;20201;-77
2021/07/20 11:10:30;;;;;;;8.57;5.57;;;;;;;;;;4995506;28;20288;-76
2021/07/20 11:12:59;;;;;;;8.35;5.45;;;;;;;;;;5011812;28;20498;-76
2021/07/20 11:15:27;;;;;;;6.32;5.75;;;;;;;;;;4997975;28;20225;-76
2021/07/20 11:17:55;;;;;;;7.55;5.30;;;;;;;;;;4995816;28;20201;-77
2021/07/20 11:20:23;;;;;;;6.70;5.57;;;;;;;;;;5011308;28;20231;-76
2021/07/20 11:22:52;;;;;;;5.93;5.22;;;;;;;;;;5004313;28;20201;-76
2021/07/20 11:25:21;;;;;;;8.70;5.30;;;;;;;;;;4996488;28;20208;-76
2021/07/20 11:27:49;;;;;;;7.65;5.25;;;;;;;;;;4992826;28;20288;-76
2021/07/20 11:30:18;;;;;;;9.65;6.30;;;;;;;;;;5007729;28;20299;-76
2021/07/20 11:32:48;;;;;;;7.35;5.72;;;;;;;;;;5011688;28;20236;-76
2021/07/20 11:35:17;;;;;;;7.03;5.60;;;;;;;;;;5004250;28;20261;-76
2021/07/20 11:37:48;;;;;;;6.60;5.45;;;;;;;;;;5001889;28;20208;-77
2021/07/20 11:40:17;;;;;;;6.43;5.80;;;;;;;;;;5006993;28;20193;-77
2021/07/20 11:42:50;;;;;;;6.68;5.50;;;;;;;;;;5009962;28;20288;-76
2021/07/20 11:45:18;;;;;;;11.00;5.85;;;;;;;;;;5006925;28;20200;-76
2021/07/20 11:47:49;;;;;;;6.43;5.43;;;;;;;;;;5000823;28;20278;-76
2021/07/20 11:50:20;;;;;;;7.32;5.68;;;;;;;;;;5004816;28;20558;-76
2021/07/20 11:52:52;;;;;;;5.97;5.38;;;;;;;;;;5009862;28;20193;-78
2021/07/20 11:55:25;;;;;;;7.65;5.35;;;;;;;;;;5003846;28;20634;-78
2021/07/20 11:58:08;;;;;;;7.03;5.07;;;;;;;;;;5001568;28;20208;-77
2021/07/20 12:00:53;;;;;;;5.97;5.38;;;;;;;;;;5006787;28;20208;-77
2021/07/20 12:03:28;;;;;;;11.63;5.50;;;;;;;;;;5007848;28;20275;-77
2021/07/20 12:06:07;;;;;;;5.68;5.18;;;;;;;;;;5015496;28;20287;-77
2021/07/20 12:08:39;;;;;;;7.50;5.32;;;;;;;;;;5014625;28;20763;-77
2021/07/20 12:11:11;;;;;;;5.28;4.78;;;;;;;;;;5013724;28;20201;-77
2021/07/20 12:13:39;;;;;;;8.05;4.70;;;;;;;;;;5010375;28;20197;-78
2021/07/20 12:16:08;;;;;;;6.40;5.30;;;;;;;;;;5012645;28;20287;-78
2021/07/20 12:18:47;;;;;;;8.00;5.38;;;;;;;;;;5013581;28;20288;-77
2021/07/20 12:21:15;;;;;;;8.02;5.00;;;;;;;;;;5009889;28;20196;-77
2021/07/20 12:23:42;;;;;;;5.97;5.07;;;;;;;;;;5014654;28;20531;-77
2021/07/20 12:26:10;;;;;;;6.70;5.10;;;;;;;;;;5011690;28;20200;-77
2021/07/20 12:28:40;;;;;;;7.32;5.00;;;;;;;;;;5015108;28;20197;-77
2021/07/20 12:31:07;;;;;;;6.68;5.10;;;;;;;;;;5010488;28;20291;-77
2021/07/20 12:33:35;;;;;;;7.60;5.22;;;;;;;;;;5010525;28;20639;-77
2021/07/20 12:36:05;;;;;;;6.28;5.10;;;;;;;;;;5015004;28;20284;-76
2021/07/20 12:38:33;;;;;;;8.07;4.55;;;;;;;;;;5011024;28;20197;-77
2021/07/20 12:41:06;;;;;;;6.25;4.90;;;;;;;;;;5009474;28;20288;-77
2021/07/20 12:43:34;;;;;;;6.95;4.72;;;;;;;;;;5000608;28;20272;-77
2021/07/20 12:46:10;;;;;;;6.18;4.60;;;;;;;;;;5009216;28;20744;-77
2021/07/20 12:48:47;;;;;;;7.53;5.00;;;;;;;;;;5008271;28;20660;-77
2021/07/20 12:51:16;;;;;;;6.88;5.03;;;;;;;;;;5011149;28;20200;-76
2021/07/20 12:53:45;;;;;;;6.80;4.93;;;;;;;;;;5008520;28;21712;-77
2021/07/20 12:56:14;;;;;;;7.93;4.68;;;;;;;;;;5008846;28;20196;-76
2021/07/20 12:58:41;;;;;;;8.07;4.80;;;;;;;;;;5008568;28;20303;-76
2021/07/20 13:01:08;;;;;;;7.38;4.72;;;;;;;;;;5009881;28;20287;-76
2021/07/20 13:03:36;;;;;;;9.50;5.05;;;;;;;;;;5004451;28;20406;-77
2021/07/20 13:06:03;;;;;;;8.30;5.20;;;;;;;;;;5012610;28;20204;-76
2021/07/20 13:08:34;;;;;;;8.18;4.68;;;;;;;;;;5007831;28;20343;-76
2021/07/20 13:11:02;;;;;;;5.10;4.53;;;;;;;;;;5011172;28;21738;-76
2021/07/20 13:13:30;;;;;;;7.38;4.50;;;;;;;;;;5001836;28;20277;-77
2021/07/20 13:15:58;;;;;;;9.00;4.45;;;;;;;;;;5002368;28;20229;-76
2021/07/20 13:18:27;;;;;;;7.30;3.90;;;;;;;;;;5000121;28;20202;-76
2021/07/20 13:20:56;;;;;;;6.07;4.30;;;;;;;;;;5000735;28;20198;-76
2021/07/20 13:23:24;;;;;;;7.80;4.32;;;;;;;;;;5008221;28;20197;-76
2021/07/20 13:25:53;;;;;;;8.30;4.47;;;;;;;;;;5005835;28;20285;-76
2021/07/20 13:28:22;;;;;;;5.32;4.35;;;;;;;;;;4999078;28;20281;-75
2021/07/20 13:30:57;;;;;;;6.57;4.55;;;;;;;;;;4997168;28;20208;-76
2021/07/20 13:33:24;;;;;;;5.50;4.50;;;;;;;;;;5003022;28;20688;-76
2021/07/20 13:35:55;;;;;;;9.35;4.85;;;;;;;;;;5011014;28;20612;-76
2021/07/20 13:38:23;;;;;;;5.60;4.43;;;;;;;;;;5012727;28;20250;-76
2021/07/20 13:40:51;;;;;;;5.10;4.60;;;;;;;;;;5005100;28;20211;-76
2021/07/20 13:43:20;;;;;;;5.07;4.25;;;;;;;;;;5000236;28;20233;-76
2021/07/20 13:45:48;;;;;;;6.65;4.30;;;;;;;;;;5006740;28;20197;-76
2021/07/20 13:48:17;;;;;;;9.63;5.05;;;;;;;;;;5006764;28;20716;-76
2021/07/20 13:50:45;;;;;;;8.45;4.70;;;;;;;;;;5010043;28;20197;-77
2021/07/20 13:53:12;;;;;;;12.20;5.70;;;;;;;;;;5005263;28;20741;-76
2021/07/20 13:55:42;;;;;;;8.38;4.85;;;;;;;;;;5007480;28;20248;-77
2021/07/20 13:58:12;;;;;;;5.78;4.88;;;;;;;;;;5011460;28;20253;-77
2021/07/20 14:00:42;;;;;;;7.47;4.65;;;;;;;;;;5009284;28;20197;-77
2021/07/20 14:03:10;;;;;;;7.88;5.43;;;;;;;;;;5008002;28;20296;-76
2021/07/20 14:05:37;;;;;;;22.60;6.10;;;;;;;;;;5010874;28;20288;-76
2021/07/20 14:08:05;;;;;;;8.25;5.53;;;;;;;;;;5008990;28;20324;-76
2021/07/20 14:10:33;;;;;;;5.65;4.68;;;;;;;;;;5008788;28;20225;-75
2021/07/20 14:13:00;;;;;;;13.55;4.88;;;;;;;;;;5006050;28;20201;-75
2021/07/20 14:15:28;;;;;;;8.70;5.03;;;;;;;;;;5011582;28;20223;-76
2021/07/20 14:17:57;;;;;;;14.02;5.38;;;;;;;;;;5005374;28;20205;-76
2021/07/20 14:20:32;;;;;;;7.07;5.28;;;;;;;;;;5004774;28;20288;-76
2021/07/20 14:23:00;;;;;;;10.00;4.88;;;;;;;;;;5010262;28;20327;-76
2021/07/20 14:25:28;;;;;;;7.97;4.85;;;;;;;;;;5005878;28;20291;-76
2021/07/20 14:27:56;;;;;;;8.02;4.95;;;;;;;;;;5008975;28;20201;-76
2021/07/20 14:30:24;;;;;;;8.18;5.05;;;;;;;;;;5008408;28;20213;-76
2021/07/20 14:32:51;;;;;;;7.88;5.20;;;;;;;;;;5006043;28;20285;-77
2021/07/20 14:35:35;;;;;;;8.18;5.13;;;;;;;;;;4998909;28;20228;-76
2021/07/20 14:38:02;;;;;;;8.25;5.10;;;;;;;;;;5004044;28;20290;-76
2021/07/20 14:40:30;;;;;;;6.65;5.05;;;;;;;;;;5010100;28;20207;-76
2021/07/20 14:42:58;;;;;;;9.63;5.38;;;;;;;;;;5005124;28;20295;-76
2021/07/20 14:45:26;;;;;;;7.10;4.85;;;;;;;;;;5003476;28;20292;-76
2021/07/20 14:48:03;;;;;;;7.07;4.90;;;;;;;;;;5007053;28;20255;-77
2021/07/20 14:50:33;;;;;;;6.53;5.07;;;;;;;;;;5003498;28;20288;-76
2021/07/20 14:53:18;;;;;;;20.52;6.20;;;;;;;;;;5008881;28;20636;-76